sensor_id;sensor_type;location;lat;lon;timestamp;temperature;humidity
67358;HTU21D;54240;51.096;5.878;2022-10-28T00:01:11;20.22;47.94
67358;HTU21D;54240;51.096;5.878;2022-10-28T00:03:39;20.26;43.90
67358;HTU21D;54240;51.096;5.878;2022-10-28T00:06:12;20.29;39.53
67358;HTU21D;54240;51.096;5.878;2022-10-28T00:08:38;20.31;36.45
67358;HTU21D;54240;51.096;5.878;2022-10-28T00:11:05;20.27;36.24
67358;HTU21D;54240;51.096;5.878;2022-10-28T00:13:32;20.28;35.80
67358;HTU21D;54240;51.096;5.878;2022-10-28T00:16:13;20.20;36.43
67358;HTU21D;54240;51.096;5.878;2022-10-28T00:18:40;20.19;36.82
67358;HTU21D;54240;51.096;5.878;2022-10-28T00:21:13;20.12;38.98
67358;HTU21D;54240;51.096;5.878;2022-10-28T00:23:39;20.04;41.71
67358;HTU21D;54240;51.096;5.878;2022-10-28T00:26:12;19.98;43.99
67358;HTU21D;54240;51.096;5.878;2022-10-28T00:28:46;19.96;45.48
67358;HTU21D;54240;51.096;5.878;2022-10-28T00:31:14;19.90;46.32
67358;HTU21D;54240;51.096;5.878;2022-10-28T00:33:40;19.89;46.80
67358;HTU21D;54240;51.096;5.878;2022-10-28T00:38:33;19.86;45.97
67358;HTU21D;54240;51.096;5.878;2022-10-28T00:40:59;19.85;48.27
67358;HTU21D;54240;51.096;5.878;2022-10-28T00:43:47;19.79;49.63
67358;HTU21D;54240;51.096;5.878;2022-10-28T00:51:40;19.62;57.26
67358;HTU21D;54240;51.096;5.878;2022-10-28T00:54:07;19.60;59.20
67358;HTU21D;54240;51.096;5.878;2022-10-28T00:56:38;19.57;60.76
67358;HTU21D;54240;51.096;5.878;2022-10-28T00:59:19;19.53;62.31
67358;HTU21D;54240;51.096;5.878;2022-10-28T01:01:46;19.50;64.72
67358;HTU21D;54240;51.096;5.878;2022-10-28T01:04:12;19.48;65.27
67358;HTU21D;54240;51.096;5.878;2022-10-28T01:06:40;19.46;66.42
67358;HTU21D;54240;51.096;5.878;2022-10-28T01:09:06;19.44;68.36
67358;HTU21D;54240;51.096;5.878;2022-10-28T01:14:42;19.46;69.71
67358;HTU21D;54240;51.096;5.878;2022-10-28T01:25:59;19.35;77.49
67358;HTU21D;54240;51.096;5.878;2022-10-28T01:28:56;19.29;81.23
67358;HTU21D;54240;51.096;5.878;2022-10-28T01:36:57;18.98;98.30
67358;HTU21D;54240;51.096;5.878;2022-10-28T01:47:26;18.69;117.00
67358;HTU21D;54240;51.096;5.878;2022-10-28T01:50:12;18.62;118.99
67358;HTU21D;54240;51.096;5.878;2022-10-28T01:52:41;18.51;118.99
67358;HTU21D;54240;51.096;5.878;2022-10-28T01:55:33;18.38;118.99
67358;HTU21D;54240;51.096;5.878;2022-10-28T01:58:02;18.32;118.99
67358;HTU21D;54240;51.096;5.878;2022-10-28T02:00:31;18.25;118.99
67358;HTU21D;54240;51.096;5.878;2022-10-28T02:02:57;18.25;118.99
67358;HTU21D;54240;51.096;5.878;2022-10-28T02:21:36;18.08;118.99
67358;HTU21D;54240;51.096;5.878;2022-10-28T02:24:24;18.04;118.99
67358;HTU21D;54240;51.096;5.878;2022-10-28T02:27:01;18.02;118.99
67358;HTU21D;54240;51.096;5.878;2022-10-28T02:29:40;17.97;118.99
67358;HTU21D;54240;51.096;5.878;2022-10-28T02:32:15;17.94;118.99
67358;HTU21D;54240;51.096;5.878;2022-10-28T02:34:47;17.90;118.99
67358;HTU21D;54240;51.096;5.878;2022-10-28T02:37:23;17.87;118.99
67358;HTU21D;54240;51.096;5.878;2022-10-28T02:39:58;17.82;118.99
67358;HTU21D;54240;51.096;5.878;2022-10-28T02:42:30;17.75;118.99
67358;HTU21D;54240;51.096;5.878;2022-10-28T02:45:24;17.69;118.99
67358;HTU21D;54240;51.096;5.878;2022-10-28T02:47:53;17.62;118.99
67358;HTU21D;54240;51.096;5.878;2022-10-28T02:50:25;17.56;118.99
67358;HTU21D;54240;51.096;5.878;2022-10-28T02:52:58;17.49;118.99
67358;HTU21D;54240;51.096;5.878;2022-10-28T02:55:34;17.45;118.99
67358;HTU21D;54240;51.096;5.878;2022-10-28T02:58:04;17.32;118.99
67358;HTU21D;54240;51.096;5.878;2022-10-28T03:00:31;17.23;118.99
67358;HTU21D;54240;51.096;5.878;2022-10-28T03:02:56;17.18;118.99
67358;HTU21D;54240;51.096;5.878;2022-10-28T03:05:23;17.18;118.99
67358;HTU21D;54240;51.096;5.878;2022-10-28T03:07:48;17.21;118.99
67358;HTU21D;54240;51.096;5.878;2022-10-28T03:10:14;17.22;118.99
67358;HTU21D;54240;51.096;5.878;2022-10-28T03:12:40;17.18;118.99
67358;HTU21D;54240;51.096;5.878;2022-10-28T03:15:06;17.11;118.99
67358;HTU21D;54240;51.096;5.878;2022-10-28T03:17:32;17.04;118.99
67358;HTU21D;54240;51.096;5.878;2022-10-28T03:19:58;17.02;118.99
67358;HTU21D;54240;51.096;5.878;2022-10-28T03:22:24;16.96;118.99
67358;HTU21D;54240;51.096;5.878;2022-10-28T03:24:50;16.90;118.99
67358;HTU21D;54240;51.096;5.878;2022-10-28T03:27:16;16.86;118.99
67358;HTU21D;54240;51.096;5.878;2022-10-28T03:29:42;16.84;118.99
67358;HTU21D;54240;51.096;5.878;2022-10-28T03:32:07;16.81;118.99
67358;HTU21D;54240;51.096;5.878;2022-10-28T03:34:33;16.79;118.99
67358;HTU21D;54240;51.096;5.878;2022-10-28T03:36:59;16.78;118.99
67358;HTU21D;54240;51.096;5.878;2022-10-28T03:39:25;16.75;118.99
67358;HTU21D;54240;51.096;5.878;2022-10-28T03:41:50;16.71;118.99
67358;HTU21D;54240;51.096;5.878;2022-10-28T03:44:16;16.74;118.99
67358;HTU21D;54240;51.096;5.878;2022-10-28T03:46:42;16.80;118.99
67358;HTU21D;54240;51.096;5.878;2022-10-28T03:49:08;16.92;118.99
67358;HTU21D;54240;51.096;5.878;2022-10-28T03:51:33;16.95;118.99
67358;HTU21D;54240;51.096;5.878;2022-10-28T03:53:59;16.93;118.99
67358;HTU21D;54240;51.096;5.878;2022-10-28T03:56:25;16.90;118.99
67358;HTU21D;54240;51.096;5.878;2022-10-28T03:58:51;16.89;118.99
67358;HTU21D;54240;51.096;5.878;2022-10-28T04:01:17;16.84;118.99
67358;HTU21D;54240;51.096;5.878;2022-10-28T04:03:42;16.81;118.99
67358;HTU21D;54240;51.096;5.878;2022-10-28T04:06:08;16.73;118.99
67358;HTU21D;54240;51.096;5.878;2022-10-28T04:08:35;16.62;118.99
67358;HTU21D;54240;51.096;5.878;2022-10-28T04:11:01;16.54;118.99
67358;HTU21D;54240;51.096;5.878;2022-10-28T04:13:27;16.43;118.99
67358;HTU21D;54240;51.096;5.878;2022-10-28T04:15:52;16.31;118.99
67358;HTU21D;54240;51.096;5.878;2022-10-28T04:18:18;16.29;118.99
67358;HTU21D;54240;51.096;5.878;2022-10-28T04:20:45;16.26;118.99
67358;HTU21D;54240;51.096;5.878;2022-10-28T04:23:15;16.29;118.99
67358;HTU21D;54240;51.096;5.878;2022-10-28T04:25:43;16.32;118.99
67358;HTU21D;54240;51.096;5.878;2022-10-28T04:28:09;16.36;118.99
67358;HTU21D;54240;51.096;5.878;2022-10-28T04:30:34;16.34;118.99
67358;HTU21D;54240;51.096;5.878;2022-10-28T04:33:00;16.31;118.99
67358;HTU21D;54240;51.096;5.878;2022-10-28T04:35:26;16.30;118.99
67358;HTU21D;54240;51.096;5.878;2022-10-28T04:37:52;16.32;118.99
67358;HTU21D;54240;51.096;5.878;2022-10-28T04:40:18;16.37;118.99
67358;HTU21D;54240;51.096;5.878;2022-10-28T04:42:43;16.40;118.99
67358;HTU21D;54240;51.096;5.878;2022-10-28T04:45:09;16.42;118.99
67358;HTU21D;54240;51.096;5.878;2022-10-28T04:47:35;16.43;118.99
67358;HTU21D;54240;51.096;5.878;2022-10-28T04:50:03;16.47;118.99
67358;HTU21D;54240;51.096;5.878;2022-10-28T04:52:29;16.52;118.99
67358;HTU21D;54240;51.096;5.878;2022-10-28T04:54:55;16.58;118.99
67358;HTU21D;54240;51.096;5.878;2022-10-28T04:57:20;16.52;118.99
67358;HTU21D;54240;51.096;5.878;2022-10-28T04:59:46;16.50;118.99
67358;HTU21D;54240;51.096;5.878;2022-10-28T05:02:12;16.42;118.99
67358;HTU21D;54240;51.096;5.878;2022-10-28T05:04:38;16.36;118.99
67358;HTU21D;54240;51.096;5.878;2022-10-28T05:07:04;16.39;118.99
67358;HTU21D;54240;51.096;5.878;2022-10-28T05:09:30;16.44;118.99
67358;HTU21D;54240;51.096;5.878;2022-10-28T05:11:55;16.48;118.99
67358;HTU21D;54240;51.096;5.878;2022-10-28T05:14:21;16.47;118.99
67358;HTU21D;54240;51.096;5.878;2022-10-28T05:16:47;16.45;118.99
67358;HTU21D;54240;51.096;5.878;2022-10-28T05:19:13;16.44;118.99
67358;HTU21D;54240;51.096;5.878;2022-10-28T05:21:38;16.40;118.99
67358;HTU21D;54240;51.096;5.878;2022-10-28T05:24:05;16.40;118.99
67358;HTU21D;54240;51.096;5.878;2022-10-28T05:26:31;16.45;118.99
67358;HTU21D;54240;51.096;5.878;2022-10-28T05:28:56;16.50;118.99
67358;HTU21D;54240;51.096;5.878;2022-10-28T05:31:23;16.51;118.99
67358;HTU21D;54240;51.096;5.878;2022-10-28T05:33:48;16.56;118.99
67358;HTU21D;54240;51.096;5.878;2022-10-28T05:36:14;16.59;118.99
67358;HTU21D;54240;51.096;5.878;2022-10-28T05:38:40;16.63;118.99
67358;HTU21D;54240;51.096;5.878;2022-10-28T05:41:10;16.64;118.99
67358;HTU21D;54240;51.096;5.878;2022-10-28T05:43:36;16.69;118.99
67358;HTU21D;54240;51.096;5.878;2022-10-28T05:46:02;16.76;118.99
67358;HTU21D;54240;51.096;5.878;2022-10-28T05:48:29;16.73;118.99
67358;HTU21D;54240;51.096;5.878;2022-10-28T05:50:54;16.80;118.99
67358;HTU21D;54240;51.096;5.878;2022-10-28T05:53:20;16.81;118.99
67358;HTU21D;54240;51.096;5.878;2022-10-28T05:55:46;16.81;118.99
67358;HTU21D;54240;51.096;5.878;2022-10-28T05:58:12;16.76;118.99
67358;HTU21D;54240;51.096;5.878;2022-10-28T06:00:38;16.73;118.99
67358;HTU21D;54240;51.096;5.878;2022-10-28T06:03:06;16.74;118.99
67358;HTU21D;54240;51.096;5.878;2022-10-28T06:05:37;16.72;118.99
67358;HTU21D;54240;51.096;5.878;2022-10-28T06:08:04;16.72;118.99
67358;HTU21D;54240;51.096;5.878;2022-10-28T06:10:31;16.72;118.99
67358;HTU21D;54240;51.096;5.878;2022-10-28T06:12:57;16.74;118.99
67358;HTU21D;54240;51.096;5.878;2022-10-28T06:15:23;16.78;118.99
67358;HTU21D;54240;51.096;5.878;2022-10-28T06:17:49;16.85;118.99
67358;HTU21D;54240;51.096;5.878;2022-10-28T06:20:16;16.88;118.99
67358;HTU21D;54240;51.096;5.878;2022-10-28T06:23:01;16.88;118.99
67358;HTU21D;54240;51.096;5.878;2022-10-28T06:25:26;16.90;118.99
67358;HTU21D;54240;51.096;5.878;2022-10-28T06:27:57;16.86;118.99
67358;HTU21D;54240;51.096;5.878;2022-10-28T06:30:25;16.79;118.99
67358;HTU21D;54240;51.096;5.878;2022-10-28T06:32:51;16.76;118.99
67358;HTU21D;54240;51.096;5.878;2022-10-28T06:35:17;16.76;118.99
67358;HTU21D;54240;51.096;5.878;2022-10-28T06:37:43;16.75;118.99
67358;HTU21D;54240;51.096;5.878;2022-10-28T06:40:09;16.74;118.99
67358;HTU21D;54240;51.096;5.878;2022-10-28T06:42:35;16.72;118.99
67358;HTU21D;54240;51.096;5.878;2022-10-28T06:45:01;16.71;118.99
67358;HTU21D;54240;51.096;5.878;2022-10-28T06:47:27;16.71;118.99
67358;HTU21D;54240;51.096;5.878;2022-10-28T06:49:53;16.72;118.99
67358;HTU21D;54240;51.096;5.878;2022-10-28T06:52:19;16.74;118.99
67358;HTU21D;54240;51.096;5.878;2022-10-28T06:54:45;16.77;118.99
67358;HTU21D;54240;51.096;5.878;2022-10-28T06:57:11;16.84;118.99
67358;HTU21D;54240;51.096;5.878;2022-10-28T06:59:36;16.91;118.99
67358;HTU21D;54240;51.096;5.878;2022-10-28T07:02:03;17.00;118.99
67358;HTU21D;54240;51.096;5.878;2022-10-28T07:04:28;17.10;118.99
67358;HTU21D;54240;51.096;5.878;2022-10-28T07:06:56;17.19;118.99
67358;HTU21D;54240;51.096;5.878;2022-10-28T07:09:21;17.29;118.99
67358;HTU21D;54240;51.096;5.878;2022-10-28T07:11:48;17.41;118.99
67358;HTU21D;54240;51.096;5.878;2022-10-28T07:14:14;17.54;118.99
67358;HTU21D;54240;51.096;5.878;2022-10-28T07:16:40;17.65;118.99
67358;HTU21D;54240;51.096;5.878;2022-10-28T07:19:07;17.81;118.99
67358;HTU21D;54240;51.096;5.878;2022-10-28T07:21:33;17.95;118.99
67358;HTU21D;54240;51.096;5.878;2022-10-28T07:23:59;18.09;118.99
67358;HTU21D;54240;51.096;5.878;2022-10-28T07:26:25;18.27;118.99
67358;HTU21D;54240;51.096;5.878;2022-10-28T07:28:51;18.44;118.99
67358;HTU21D;54240;51.096;5.878;2022-10-28T07:31:17;18.58;118.99
67358;HTU21D;54240;51.096;5.878;2022-10-28T07:33:43;18.69;118.99
67358;HTU21D;54240;51.096;5.878;2022-10-28T07:36:10;18.79;118.99
67358;HTU21D;54240;51.096;5.878;2022-10-28T07:38:36;18.86;118.99
67358;HTU21D;54240;51.096;5.878;2022-10-28T07:41:06;18.88;118.99
67358;HTU21D;54240;51.096;5.878;2022-10-28T07:43:38;18.89;118.99
67358;HTU21D;54240;51.096;5.878;2022-10-28T07:46:06;18.92;118.99
67358;HTU21D;54240;51.096;5.878;2022-10-28T07:48:33;18.94;118.99
67358;HTU21D;54240;51.096;5.878;2022-10-28T07:51:00;19.03;118.99
67358;HTU21D;54240;51.096;5.878;2022-10-28T07:53:26;19.26;118.99
67358;HTU21D;54240;51.096;5.878;2022-10-28T07:56:00;19.45;118.99
67358;HTU21D;54240;51.096;5.878;2022-10-28T07:58:26;19.68;118.99
67358;HTU21D;54240;51.096;5.878;2022-10-28T08:00:52;19.95;118.99
67358;HTU21D;54240;51.096;5.878;2022-10-28T08:03:18;20.22;118.99
67358;HTU21D;54240;51.096;5.878;2022-10-28T08:05:45;20.54;118.99
67358;HTU21D;54240;51.096;5.878;2022-10-28T08:08:11;20.89;118.99
67358;HTU21D;54240;51.096;5.878;2022-10-28T08:10:37;21.20;118.99
67358;HTU21D;54240;51.096;5.878;2022-10-28T08:13:03;21.49;103.64
67358;HTU21D;54240;51.096;5.878;2022-10-28T08:15:30;21.68;93.76
67358;HTU21D;54240;51.096;5.878;2022-10-28T08:17:56;21.95;82.50
67358;HTU21D;54240;51.096;5.878;2022-10-28T08:20:22;22.27;69.92
67358;HTU21D;54240;51.096;5.878;2022-10-28T08:22:48;22.62;53.67
67358;HTU21D;54240;51.096;5.878;2022-10-28T08:25:14;22.86;38.81
67358;HTU21D;54240;51.096;5.878;2022-10-28T08:27:40;23.17;25.52
67358;HTU21D;54240;51.096;5.878;2022-10-28T08:30:07;23.44;11.24
67358;HTU21D;54240;51.096;5.878;2022-10-28T08:32:34;23.61;-1.57
67358;HTU21D;54240;51.096;5.878;2022-10-28T08:35:00;23.72;-6.00
67358;HTU21D;54240;51.096;5.878;2022-10-28T08:37:26;23.88;-6.00
67358;HTU21D;54240;51.096;5.878;2022-10-28T08:39:52;24.06;-6.00
67358;HTU21D;54240;51.096;5.878;2022-10-28T08:45:02;24.46;-6.00
67358;HTU21D;54240;51.096;5.878;2022-10-28T08:47:49;24.58;-6.00
67358;HTU21D;54240;51.096;5.878;2022-10-28T08:50:21;24.59;-6.00
67358;HTU21D;54240;51.096;5.878;2022-10-28T08:52:55;24.60;-6.00
67358;HTU21D;54240;51.096;5.878;2022-10-28T08:55:37;24.72;-6.00
67358;HTU21D;54240;51.096;5.878;2022-10-28T08:58:23;24.90;-6.00
67358;HTU21D;54240;51.096;5.878;2022-10-28T09:00:52;24.99;-6.00
67358;HTU21D;54240;51.096;5.878;2022-10-28T09:03:29;25.14;-6.00
67358;HTU21D;54240;51.096;5.878;2022-10-28T09:06:04;25.05;-6.00
67358;HTU21D;54240;51.096;5.878;2022-10-28T09:08:34;24.95;-6.00
67358;HTU21D;54240;51.096;5.878;2022-10-28T09:16:49;25.32;-6.00
67358;HTU21D;54240;51.096;5.878;2022-10-28T09:22:30;25.21;-6.00
67358;HTU21D;54240;51.096;5.878;2022-10-28T09:25:05;25.17;-6.00
67358;HTU21D;54240;51.096;5.878;2022-10-28T09:35:52;25.42;-6.00
67358;HTU21D;54240;51.096;5.878;2022-10-28T09:40:57;25.25;-6.00
67358;HTU21D;54240;51.096;5.878;2022-10-28T09:43:37;25.20;-6.00
67358;HTU21D;54240;51.096;5.878;2022-10-28T09:46:12;25.32;-6.00
67358;HTU21D;54240;51.096;5.878;2022-10-28T09:49:02;25.69;-6.00
67358;HTU21D;54240;51.096;5.878;2022-10-28T09:54:11;26.61;-6.00
67358;HTU21D;54240;51.096;5.878;2022-10-28T09:56:39;26.67;-6.00
67358;HTU21D;54240;51.096;5.878;2022-10-28T09:59:06;26.46;-6.00
67358;HTU21D;54240;51.096;5.878;2022-10-28T10:01:40;26.21;-6.00
67358;HTU21D;54240;51.096;5.878;2022-10-28T10:04:18;26.17;-6.00
67358;HTU21D;54240;51.096;5.878;2022-10-28T10:06:48;26.51;-6.00
67358;HTU21D;54240;51.096;5.878;2022-10-28T10:09:27;26.70;-6.00
67358;HTU21D;54240;51.096;5.878;2022-10-28T10:12:04;26.79;-6.00
67358;HTU21D;54240;51.096;5.878;2022-10-28T10:14:49;26.89;-6.00
67358;HTU21D;54240;51.096;5.878;2022-10-28T10:17:40;27.02;-6.00
67358;HTU21D;54240;51.096;5.878;2022-10-28T10:20:11;27.21;-6.00
67358;HTU21D;54240;51.096;5.878;2022-10-28T10:22:42;27.54;-6.00
67358;HTU21D;54240;51.096;5.878;2022-10-28T10:27:59;28.08;-6.00
67358;HTU21D;54240;51.096;5.878;2022-10-28T10:30:30;28.39;-6.00
67358;HTU21D;54240;51.096;5.878;2022-10-28T10:32:57;28.59;-6.00
67358;HTU21D;54240;51.096;5.878;2022-10-28T10:35:35;29.02;-6.00
67358;HTU21D;54240;51.096;5.878;2022-10-28T10:38:04;29.04;-6.00
67358;HTU21D;54240;51.096;5.878;2022-10-28T10:40:49;29.05;-6.00
67358;HTU21D;54240;51.096;5.878;2022-10-28T10:46:12;29.32;-6.00
67358;HTU21D;54240;51.096;5.878;2022-10-28T10:48:39;28.67;-6.00
67358;HTU21D;54240;51.096;5.878;2022-10-28T10:53:35;27.85;-6.00
67358;HTU21D;54240;51.096;5.878;2022-10-28T10:56:06;27.66;-6.00
67358;HTU21D;54240;51.096;5.878;2022-10-28T10:58:54;27.61;-6.00
67358;HTU21D;54240;51.096;5.878;2022-10-28T11:01:24;27.74;-6.00
67358;HTU21D;54240;51.096;5.878;2022-10-28T11:04:05;27.78;-6.00
67358;HTU21D;54240;51.096;5.878;2022-10-28T11:06:37;27.84;-6.00
67358;HTU21D;54240;51.096;5.878;2022-10-28T11:09:15;27.52;-6.00
67358;HTU21D;54240;51.096;5.878;2022-10-28T11:11:43;27.27;-6.00
67358;HTU21D;54240;51.096;5.878;2022-10-28T11:16:55;28.13;-6.00
67358;HTU21D;54240;51.096;5.878;2022-10-28T11:19:33;28.42;-6.00
67358;HTU21D;54240;51.096;5.878;2022-10-28T11:22:25;28.50;-6.00
67358;HTU21D;54240;51.096;5.878;2022-10-28T11:30:18;28.35;-6.00
67358;HTU21D;54240;51.096;5.878;2022-10-28T11:35:56;29.18;-6.00
67358;HTU21D;54240;51.096;5.878;2022-10-28T11:38:54;28.46;-6.00
67358;HTU21D;54240;51.096;5.878;2022-10-28T11:41:56;27.99;-6.00
67358;HTU21D;54240;51.096;5.878;2022-10-28T11:55:34;26.99;-6.00
67358;HTU21D;54240;51.096;5.878;2022-10-28T12:00:59;26.63;-6.00
67358;HTU21D;54240;51.096;5.878;2022-10-28T12:03:49;26.43;-6.00
67358;HTU21D;54240;51.096;5.878;2022-10-28T12:06:39;26.67;-6.00
67358;HTU21D;54240;51.096;5.878;2022-10-28T12:20:35;26.19;-6.00
67358;HTU21D;54240;51.096;5.878;2022-10-28T12:23:13;25.89;-6.00
67358;HTU21D;54240;51.096;5.878;2022-10-28T12:25:45;25.82;-6.00
67358;HTU21D;54240;51.096;5.878;2022-10-28T12:28:44;25.84;-6.00
67358;HTU21D;54240;51.096;5.878;2022-10-28T12:31:33;25.54;-6.00
67358;HTU21D;54240;51.096;5.878;2022-10-28T12:34:07;25.59;-6.00
67358;HTU21D;54240;51.096;5.878;2022-10-28T12:36:58;25.69;-6.00
67358;HTU21D;54240;51.096;5.878;2022-10-28T12:39:38;25.79;-6.00
67358;HTU21D;54240;51.096;5.878;2022-10-28T12:42:31;25.77;-6.00
67358;HTU21D;54240;51.096;5.878;2022-10-28T12:45:03;25.63;-6.00
67358;HTU21D;54240;51.096;5.878;2022-10-28T12:50:52;25.88;-6.00
67358;HTU21D;54240;51.096;5.878;2022-10-28T12:56:32;25.58;-6.00
67358;HTU21D;54240;51.096;5.878;2022-10-28T13:01:51;25.74;-6.00
67358;HTU21D;54240;51.096;5.878;2022-10-28T13:04:17;25.68;-6.00
67358;HTU21D;54240;51.096;5.878;2022-10-28T13:10:06;25.83;-6.00
67358;HTU21D;54240;51.096;5.878;2022-10-28T13:15:32;25.31;-6.00
67358;HTU21D;54240;51.096;5.878;2022-10-28T13:26:34;24.90;-6.00
67358;HTU21D;54240;51.096;5.878;2022-10-28T13:29:04;24.98;-6.00
67358;HTU21D;54240;51.096;5.878;2022-10-28T13:31:40;24.92;-6.00
67358;HTU21D;54240;51.096;5.878;2022-10-28T13:34:14;24.90;-6.00
67358;HTU21D;54240;51.096;5.878;2022-10-28T13:36:53;24.74;-6.00
67358;HTU21D;54240;51.096;5.878;2022-10-28T13:44:53;24.68;-6.00
67358;HTU21D;54240;51.096;5.878;2022-10-28T13:47:34;24.64;-6.00
67358;HTU21D;54240;51.096;5.878;2022-10-28T13:52:42;24.69;-6.00
67358;HTU21D;54240;51.096;5.878;2022-10-28T13:55:23;24.66;-6.00
67358;HTU21D;54240;51.096;5.878;2022-10-28T13:58:05;24.62;-6.00
67358;HTU21D;54240;51.096;5.878;2022-10-28T14:00:43;24.66;-6.00
67358;HTU21D;54240;51.096;5.878;2022-10-28T14:03:22;24.57;-6.00
67358;HTU21D;54240;51.096;5.878;2022-10-28T14:05:51;24.42;-6.00
67358;HTU21D;54240;51.096;5.878;2022-10-28T14:08:33;24.54;-6.00
67358;HTU21D;54240;51.096;5.878;2022-10-28T14:11:31;24.77;-6.00
67358;HTU21D;54240;51.096;5.878;2022-10-28T14:14:03;24.74;-6.00
67358;HTU21D;54240;51.096;5.878;2022-10-28T14:16:43;24.64;-6.00
67358;HTU21D;54240;51.096;5.878;2022-10-28T14:21:43;24.57;-6.00
67358;HTU21D;54240;51.096;5.878;2022-10-28T14:24:30;24.42;-6.00
67358;HTU21D;54240;51.096;5.878;2022-10-28T14:35:04;24.28;-6.00
67358;HTU21D;54240;51.096;5.878;2022-10-28T14:40:39;24.18;-6.00
67358;HTU21D;54240;51.096;5.878;2022-10-28T14:46:02;24.06;-6.00
67358;HTU21D;54240;51.096;5.878;2022-10-28T14:48:44;23.91;-6.00
67358;HTU21D;54240;51.096;5.878;2022-10-28T14:51:21;23.88;-6.00
67358;HTU21D;54240;51.096;5.878;2022-10-28T14:53:50;23.76;-6.00
67358;HTU21D;54240;51.096;5.878;2022-10-28T14:56:28;23.80;-6.00
67358;HTU21D;54240;51.096;5.878;2022-10-28T14:59:44;23.85;-6.00
67358;HTU21D;54240;51.096;5.878;2022-10-28T15:04:27;23.80;-6.00
67358;HTU21D;54240;51.096;5.878;2022-10-28T15:06:54;23.73;-6.00
67358;HTU21D;54240;51.096;5.878;2022-10-28T15:09:29;23.72;-6.00
67358;HTU21D;54240;51.096;5.878;2022-10-28T15:12:02;23.76;-6.00
67358;HTU21D;54240;51.096;5.878;2022-10-28T15:14:51;23.59;-6.00
67358;HTU21D;54240;51.096;5.878;2022-10-28T15:17:37;23.51;-6.00
67358;HTU21D;54240;51.096;5.878;2022-10-28T15:20:25;23.45;-6.00
67358;HTU21D;54240;51.096;5.878;2022-10-28T15:22:53;23.29;-6.00
67358;HTU21D;54240;51.096;5.878;2022-10-28T15:25:21;23.26;-6.00
67358;HTU21D;54240;51.096;5.878;2022-10-28T15:27:50;23.17;-6.00
67358;HTU21D;54240;51.096;5.878;2022-10-28T15:30:20;23.15;-6.00
67358;HTU21D;54240;51.096;5.878;2022-10-28T15:32:51;23.09;-6.00
67358;HTU21D;54240;51.096;5.878;2022-10-28T15:35:44;22.96;-6.00
67358;HTU21D;54240;51.096;5.878;2022-10-28T15:38:33;22.93;-6.00
67358;HTU21D;54240;51.096;5.878;2022-10-28T15:41:00;22.85;-6.00
67358;HTU21D;54240;51.096;5.878;2022-10-28T15:43:28;22.76;-6.00
67358;HTU21D;54240;51.096;5.878;2022-10-28T15:46:15;22.70;-6.00
67358;HTU21D;54240;51.096;5.878;2022-10-28T15:48:41;22.61;-6.00
67358;HTU21D;54240;51.096;5.878;2022-10-28T15:51:13;22.50;-6.00
67358;HTU21D;54240;51.096;5.878;2022-10-28T15:53:44;22.50;-6.00
67358;HTU21D;54240;51.096;5.878;2022-10-28T15:58:45;22.38;-6.00
67358;HTU21D;54240;51.096;5.878;2022-10-28T16:03:58;22.18;-6.00
67358;HTU21D;54240;51.096;5.878;2022-10-28T16:06:35;22.14;-6.00
67358;HTU21D;54240;51.096;5.878;2022-10-28T16:09:13;22.07;-6.00
67358;HTU21D;54240;51.096;5.878;2022-10-28T16:11:45;21.93;-6.00
67358;HTU21D;54240;51.096;5.878;2022-10-28T16:14:38;21.93;-6.00
67358;HTU21D;54240;51.096;5.878;2022-10-28T16:17:17;21.88;-6.00
67358;HTU21D;54240;51.096;5.878;2022-10-28T16:22:48;21.67;-6.00
67358;HTU21D;54240;51.096;5.878;2022-10-28T16:25:20;21.62;-6.00
67358;HTU21D;54240;51.096;5.878;2022-10-28T16:27:49;21.54;-6.00
67358;HTU21D;54240;51.096;5.878;2022-10-28T16:30:16;21.47;-6.00
67358;HTU21D;54240;51.096;5.878;2022-10-28T16:32:46;21.38;-0.63
67358;HTU21D;54240;51.096;5.878;2022-10-28T16:35:17;21.37;1.49
67358;HTU21D;54240;51.096;5.878;2022-10-28T16:37:44;21.29;8.72
67358;HTU21D;54240;51.096;5.878;2022-10-28T16:40:10;21.30;8.43
67358;HTU21D;54240;51.096;5.878;2022-10-28T16:42:37;21.28;13.91
67358;HTU21D;54240;51.096;5.878;2022-10-28T16:45:07;21.20;18.84
67358;HTU21D;54240;51.096;5.878;2022-10-28T16:47:35;21.16;22.76
67358;HTU21D;54240;51.096;5.878;2022-10-28T16:50:01;21.11;26.75
67358;HTU21D;54240;51.096;5.878;2022-10-28T16:52:28;21.07;30.09
67358;HTU21D;54240;51.096;5.878;2022-10-28T16:54:55;21.06;31.64
67358;HTU21D;54240;51.096;5.878;2022-10-28T16:57:22;20.99;37.03
67358;HTU21D;54240;51.096;5.878;2022-10-28T16:59:49;20.93;41.94
67358;HTU21D;54240;51.096;5.878;2022-10-28T17:02:30;20.89;43.88
67358;HTU21D;54240;51.096;5.878;2022-10-28T17:04:57;20.87;45.75
67358;HTU21D;54240;51.096;5.878;2022-10-28T17:07:24;20.89;46.00
67358;HTU21D;54240;51.096;5.878;2022-10-28T17:09:50;20.89;46.88
67358;HTU21D;54240;51.096;5.878;2022-10-28T17:12:19;20.88;46.45
67358;HTU21D;54240;51.096;5.878;2022-10-28T17:14:45;20.87;47.76
67358;HTU21D;54240;51.096;5.878;2022-10-28T17:17:11;20.87;49.13
67358;HTU21D;54240;51.096;5.878;2022-10-28T17:19:38;20.79;53.71
67358;HTU21D;54240;51.096;5.878;2022-10-28T17:22:06;20.75;57.99
67358;HTU21D;54240;51.096;5.878;2022-10-28T17:24:33;20.65;63.79
67358;HTU21D;54240;51.096;5.878;2022-10-28T17:26:59;20.64;65.76
67358;HTU21D;54240;51.096;5.878;2022-10-28T17:29:25;20.62;69.05
67358;HTU21D;54240;51.096;5.878;2022-10-28T17:31:52;20.57;72.48
67358;HTU21D;54240;51.096;5.878;2022-10-28T17:34:17;20.48;77.56
67358;HTU21D;54240;51.096;5.878;2022-10-28T17:36:43;20.46;80.00
67358;HTU21D;54240;51.096;5.878;2022-10-28T17:39:09;20.42;85.04
67358;HTU21D;54240;51.096;5.878;2022-10-28T17:41:35;20.42;85.84
67358;HTU21D;54240;51.096;5.878;2022-10-28T17:44:01;20.36;88.15
67358;HTU21D;54240;51.096;5.878;2022-10-28T17:46:27;20.32;93.62
67358;HTU21D;54240;51.096;5.878;2022-10-28T17:48:53;20.36;90.60
67358;HTU21D;54240;51.096;5.878;2022-10-28T17:51:19;20.37;91.54
67358;HTU21D;54240;51.096;5.878;2022-10-28T17:53:52;20.31;94.27
67358;HTU21D;54240;51.096;5.878;2022-10-28T17:56:17;20.27;98.12
67358;HTU21D;54240;51.096;5.878;2022-10-28T17:58:43;20.31;96.50
67358;HTU21D;54240;51.096;5.878;2022-10-28T18:01:10;20.29;99.69
67358;HTU21D;54240;51.096;5.878;2022-10-28T18:03:36;20.26;100.63
67358;HTU21D;54240;51.096;5.878;2022-10-28T18:06:05;20.26;102.02
67358;HTU21D;54240;51.096;5.878;2022-10-28T18:08:36;20.20;105.05
67358;HTU21D;54240;51.096;5.878;2022-10-28T18:11:04;20.15;108.29
67358;HTU21D;54240;51.096;5.878;2022-10-28T18:13:36;20.14;109.84
67358;HTU21D;54240;51.096;5.878;2022-10-28T18:16:15;20.01;117.89
67358;HTU21D;54240;51.096;5.878;2022-10-28T18:18:41;20.04;117.63
67358;HTU21D;54240;51.096;5.878;2022-10-28T18:21:08;20.06;117.04
67358;HTU21D;54240;51.096;5.878;2022-10-28T18:23:34;20.00;118.99
67358;HTU21D;54240;51.096;5.878;2022-10-28T18:26:12;20.00;118.99
67358;HTU21D;54240;51.096;5.878;2022-10-28T18:28:39;19.97;118.99
67358;HTU21D;54240;51.096;5.878;2022-10-28T18:33:35;19.94;118.99